createdAt,value
2022-10-01T00:00:43.027Z,82.59
2022-10-01T00:02:45.253Z,82.40
2022-10-01T00:04:47.217Z,82.31
2022-10-01T00:06:51.846Z,81.84
2022-10-01T00:08:55.159Z,82.10
2022-10-01T00:11:04.093Z,82.23
2022-10-01T00:13:07.086Z,82.38
2022-10-01T00:15:13.312Z,82.07
2022-10-01T00:17:15.361Z,81.92
2022-10-01T00:19:16.990Z,82.29
2022-10-01T00:21:21.780Z,82.34
2022-10-01T00:23:23.441Z,81.94
2022-10-01T00:25:25.590Z,81.85
2022-10-01T00:27:28.146Z,82.24
2022-10-01T00:29:29.855Z,82.37
2022-10-01T00:31:32.340Z,82.11
2022-10-01T00:33:34.913Z,81.98
2022-10-01T00:35:38.032Z,82.37
2022-10-01T00:37:39.706Z,81.84
2022-10-01T00:39:41.533Z,82.00
2022-10-01T00:41:43.823Z,81.76
2022-10-01T00:43:55.710Z,81.54
2022-10-01T00:46:08.116Z,81.59
2022-10-01T00:48:09.830Z,81.48
2022-10-01T00:50:30.068Z,81.39
2022-10-01T00:52:34.235Z,81.58
2022-10-01T00:54:43.054Z,81.85
2022-10-01T00:56:45.350Z,81.69
2022-10-01T00:58:47.238Z,81.56
2022-10-01T01:00:55.013Z,81.22
2022-10-01T01:02:56.807Z,81.36
2022-10-01T01:04:59.337Z,81.29
2022-10-01T01:07:04.466Z,81.27
2022-10-01T01:09:06.134Z,80.86
2022-10-01T01:11:18.471Z,81.15
2022-10-01T01:13:33.310Z,81.23
2022-10-01T01:15:37.684Z,81.56
2022-10-01T01:18:04.706Z,80.81
2022-10-01T01:20:26.183Z,80.96
2022-10-01T01:22:33.336Z,80.92
2022-10-01T01:24:50.230Z,81.14
2022-10-01T01:27:24.408Z,81.04
2022-10-01T01:29:39.828Z,80.92
2022-10-01T01:31:49.004Z,80.99
2022-10-01T01:33:54.175Z,80.51
2022-10-01T01:36:07.337Z,80.75
2022-10-01T01:38:14.622Z,80.04
2022-10-01T01:40:18.667Z,80.33
2022-10-01T01:42:31.391Z,79.91
2022-10-01T01:44:38.383Z,80.27
2022-10-01T01:46:44.203Z,80.06
2022-10-01T01:48:49.845Z,79.95
2022-10-01T01:50:58.153Z,80.31
2022-10-01T01:53:00.837Z,79.74
2022-10-01T01:55:07.481Z,80.05
2022-10-01T01:57:10.285Z,80.24
2022-10-01T01:59:13.806Z,79.92
2022-10-01T02:01:51.255Z,79.60
2022-10-01T02:03:53.151Z,79.82
2022-10-01T02:06:33.214Z,80.12
2022-10-01T02:08:44.655Z,79.83
2022-10-01T02:11:15.021Z,79.88
2022-10-01T02:13:27.832Z,79.90
2022-10-01T02:15:48.220Z,80.05
2022-10-01T02:17:56.428Z,79.68
2022-10-01T02:20:08.721Z,79.54
2022-10-01T02:22:37.874Z,79.73
2022-10-01T02:24:57.209Z,80.01
2022-10-01T02:27:05.642Z,79.86
2022-10-01T02:29:13.259Z,80.03
2022-10-01T02:31:18.085Z,80.12
2022-10-01T02:33:27.422Z,79.95
2022-10-01T02:35:31.713Z,79.61
2022-10-01T02:37:36.740Z,79.60
2022-10-01T02:39:43.819Z,79.76
2022-10-01T02:41:48.122Z,79.76
2022-10-01T02:43:56.466Z,79.52
2022-10-01T02:46:08.573Z,79.64
2022-10-01T02:48:12.426Z,79.20
2022-10-01T02:50:15.000Z,79.83
2022-10-01T02:52:42.725Z,79.71
2022-10-01T02:54:54.870Z,79.59
2022-10-01T02:57:16.895Z,79.70
2022-10-01T02:59:21.464Z,79.70
2022-10-01T03:01:23.379Z,79.78
2022-10-01T03:03:26.221Z,79.94
2022-10-01T03:05:28.130Z,79.79
2022-10-01T03:07:31.619Z,79.81
2022-10-01T03:09:34.847Z,79.76
2022-10-01T03:11:36.824Z,79.59
2022-10-01T03:13:38.580Z,80.00
2022-10-01T03:15:40.371Z,79.85
2022-10-01T03:17:42.172Z,79.51
2022-10-01T03:19:43.902Z,79.73
2022-10-01T03:21:46.094Z,79.81
2022-10-01T03:23:47.722Z,79.50
2022-10-01T03:25:49.699Z,79.58
2022-10-01T03:27:51.878Z,79.61
2022-10-01T03:29:53.607Z,79.58
2022-10-01T03:31:57.100Z,79.58
2022-10-01T03:34:00.465Z,79.50
2022-10-01T03:36:05.173Z,79.27
2022-10-01T03:38:08.293Z,79.17
2022-10-01T03:40:10.127Z,79.15
2022-10-01T03:42:14.019Z,79.01
2022-10-01T03:44:15.712Z,79.54
2022-10-01T03:46:18.515Z,79.36
2022-10-01T03:48:22.499Z,79.05
2022-10-01T03:50:24.290Z,79.03
2022-10-01T03:52:25.995Z,79.27
2022-10-01T03:54:27.781Z,79.55
2022-10-01T03:56:29.790Z,79.35
2022-10-01T03:58:31.474Z,79.73
2022-10-01T04:00:33.146Z,79.60
2022-10-01T04:02:34.942Z,79.36
2022-10-01T04:04:39.735Z,79.64
2022-10-01T04:06:44.450Z,79.64
2022-10-01T04:08:46.322Z,79.29
2022-10-01T04:10:49.662Z,79.40
2022-10-01T04:12:51.897Z,79.07
2022-10-01T04:14:53.523Z,78.82
2022-10-01T04:16:55.210Z,78.86
2022-10-01T04:18:56.904Z,78.52
2022-10-01T04:21:00.740Z,78.25
2022-10-01T04:23:02.710Z,78.19
2022-10-01T04:25:04.797Z,78.05
2022-10-01T04:27:06.416Z,77.80
2022-10-01T04:29:08.409Z,77.70
2022-10-01T04:31:26.453Z,77.32
2022-10-01T04:33:28.255Z,77.37
2022-10-01T04:35:30.049Z,76.94
2022-10-01T04:37:31.722Z,77.01
2022-10-01T04:39:33.331Z,76.57
2022-10-01T04:41:35.224Z,76.78
2022-10-01T04:43:37.365Z,76.64
2022-10-01T04:45:39.674Z,76.89
2022-10-01T04:47:49.229Z,76.82
2022-10-01T04:49:50.891Z,76.33
2022-10-01T04:51:54.605Z,76.37
2022-10-01T04:53:56.257Z,76.32
2022-10-01T04:55:57.947Z,76.58
2022-10-01T04:57:59.663Z,76.08
2022-10-01T05:00:02.163Z,76.11
2022-10-01T05:02:03.869Z,75.81
2022-10-01T05:04:05.733Z,75.58
2022-10-01T05:06:07.513Z,75.64
2022-10-01T05:08:09.183Z,75.33
2022-10-01T05:10:13.828Z,75.41
2022-10-01T05:12:15.508Z,75.39
2022-10-01T05:14:17.144Z,75.17
2022-10-01T05:16:18.874Z,75.07
2022-10-01T05:18:20.675Z,75.15
2022-10-01T05:20:26.328Z,74.99
2022-10-01T05:22:28.566Z,74.93
2022-10-01T05:24:30.316Z,75.13
2022-10-01T05:26:32.376Z,75.10
2022-10-01T05:28:35.727Z,74.79
2022-10-01T05:30:37.594Z,75.13
2022-10-01T05:32:39.494Z,75.04
2022-10-01T05:34:41.366Z,75.02
2022-10-01T05:36:43.028Z,75.04
2022-10-01T05:38:44.666Z,74.97
2022-10-01T05:40:51.696Z,75.37
2022-10-01T05:42:54.926Z,75.19
2022-10-01T05:44:56.926Z,75.63
2022-10-01T05:46:58.570Z,76.16
2022-10-01T05:49:00.588Z,75.62
2022-10-01T05:51:04.352Z,75.87
2022-10-01T05:53:08.144Z,75.97
2022-10-01T05:55:11.208Z,75.84
2022-10-01T05:57:13.153Z,76.55
2022-10-01T05:59:15.213Z,76.24
2022-10-01T06:01:17.049Z,76.50
2022-10-01T06:03:18.730Z,76.49
2022-10-01T06:05:20.857Z,76.29
2022-10-01T06:07:22.491Z,76.85
2022-10-01T06:09:24.212Z,76.78
2022-10-01T06:11:27.165Z,76.80
2022-10-01T06:13:29.391Z,77.48
2022-10-01T06:15:40.049Z,77.14
2022-10-01T06:17:45.149Z,77.65
2022-10-01T06:19:46.832Z,77.38
2022-10-01T06:21:48.543Z,77.70
2022-10-01T06:23:51.222Z,77.92
2022-10-01T06:25:52.845Z,77.95
2022-10-01T06:27:58.232Z,77.93
2022-10-01T06:29:59.990Z,78.27
2022-10-01T06:32:01.935Z,77.70
2022-10-01T06:34:03.951Z,78.22
2022-10-01T06:36:05.778Z,78.25
2022-10-01T06:38:08.522Z,78.33
2022-10-01T06:40:10.582Z,78.09
2022-10-01T06:42:12.230Z,77.92
2022-10-01T06:44:13.889Z,78.19
2022-10-01T06:46:15.552Z,78.19
2022-10-01T06:48:20.014Z,78.47
2022-10-01T06:50:22.284Z,78.56
2022-10-01T06:52:42.665Z,78.18
2022-10-01T06:54:44.670Z,78.31
2022-10-01T06:56:46.493Z,78.38
2022-10-01T06:58:49.852Z,78.15
2022-10-01T07:00:51.547Z,78.24
2022-10-01T07:02:54.266Z,78.25
2022-10-01T07:04:59.522Z,78.13
2022-10-01T07:07:01.190Z,78.21
2022-10-01T07:09:02.826Z,78.30
2022-10-01T07:11:05.106Z,78.48
2022-10-01T07:13:16.445Z,78.13
2022-10-01T07:15:20.251Z,78.18
2022-10-01T07:17:22.586Z,78.24
2022-10-01T07:19:24.241Z,77.89
2022-10-01T07:21:26.542Z,78.01
2022-10-01T07:23:28.243Z,77.88
2022-10-01T07:25:29.971Z,77.52
2022-10-01T07:27:31.635Z,77.86
2022-10-01T07:29:33.419Z,78.03
2022-10-01T07:31:35.315Z,77.52
2022-10-01T07:33:40.998Z,77.54
2022-10-01T07:35:42.670Z,77.29
2022-10-01T07:37:44.279Z,77.58
2022-10-01T07:39:45.899Z,77.56
2022-10-01T07:41:47.607Z,77.72
2022-10-01T07:43:49.879Z,77.53
2022-10-01T07:45:55.185Z,77.95
2022-10-01T07:47:59.999Z,77.64
2022-10-01T07:50:01.890Z,77.50
2022-10-01T07:52:10.915Z,77.55
2022-10-01T07:54:15.044Z,77.36
2022-10-01T07:56:16.750Z,77.23
2022-10-01T07:58:18.914Z,77.13
2022-10-01T08:00:21.635Z,77.19
2022-10-01T08:02:23.339Z,77.24
2022-10-01T08:04:54.319Z,77.25
2022-10-01T08:06:57.221Z,77.39
2022-10-01T08:08:58.990Z,77.60
2022-10-01T08:11:02.539Z,77.31
2022-10-01T08:13:14.677Z,77.37
2022-10-01T08:15:17.703Z,77.07
2022-10-01T08:17:19.354Z,77.34
2022-10-01T08:19:21.016Z,77.29
2022-10-01T08:21:22.687Z,77.11
2022-10-01T08:23:24.359Z,76.86
2022-10-01T08:25:26.178Z,76.25
2022-10-01T08:27:28.268Z,75.62
2022-10-01T08:29:29.879Z,75.49
2022-10-01T08:31:32.210Z,74.92
2022-10-01T08:33:35.022Z,74.62
2022-10-01T08:35:39.761Z,74.11
2022-10-01T08:37:41.450Z,74.52
2022-10-01T08:39:43.077Z,73.47
2022-10-01T08:42:03.757Z,72.50
2022-10-01T08:44:07.383Z,72.12
2022-10-01T08:46:18.057Z,71.23
2022-10-01T08:48:29.513Z,70.45
2022-10-01T08:50:41.221Z,70.47
2022-10-01T08:52:52.303Z,69.85
2022-10-01T08:55:11.692Z,69.63
2022-10-01T08:57:17.974Z,70.01
2022-10-01T08:59:38.371Z,69.57
2022-10-01T09:01:40.068Z,69.27
2022-10-01T09:03:42.051Z,68.97
2022-10-01T09:05:55.857Z,67.83
2022-10-01T09:08:15.351Z,67.97
2022-10-01T09:10:27.375Z,67.75
2022-10-01T09:12:43.222Z,65.82
2022-10-01T09:15:00.285Z,65.94
2022-10-01T09:17:05.938Z,65.83
2022-10-01T09:19:16.302Z,65.51
2022-10-01T09:21:23.137Z,65.04
2022-10-01T09:23:34.757Z,64.72
2022-10-01T09:25:38.502Z,64.41
2022-10-01T09:27:40.997Z,63.74
2022-10-01T09:29:58.027Z,63.96
2022-10-01T09:32:03.478Z,63.53
2022-10-01T09:34:13.262Z,63.68
2022-10-01T09:36:47.597Z,63.52
2022-10-01T09:39:17.833Z,62.95
2022-10-01T09:41:20.152Z,63.19
2022-10-01T09:43:24.321Z,62.96
2022-10-01T09:45:26.041Z,62.74
2022-10-01T09:47:28.215Z,61.13
2022-10-01T09:49:39.565Z,61.25
2022-10-01T09:51:55.509Z,61.67
2022-10-01T09:54:00.233Z,61.51
2022-10-01T09:56:12.279Z,61.49
2022-10-01T09:58:23.619Z,61.22
2022-10-01T10:00:27.070Z,60.36
2022-10-01T10:02:36.529Z,60.24
2022-10-01T10:04:38.512Z,60.24
2022-10-01T10:06:40.180Z,59.97
2022-10-01T10:08:45.703Z,58.12
2022-10-01T10:11:08.977Z,57.63
2022-10-01T10:13:14.043Z,57.19
2022-10-01T10:15:19.042Z,57.17
2022-10-01T10:17:22.150Z,57.06
2022-10-01T10:19:32.991Z,56.86
2022-10-01T10:21:35.291Z,56.86
2022-10-01T10:23:47.632Z,56.93
2022-10-01T10:26:07.101Z,55.88
2022-10-01T10:28:24.389Z,55.54
2022-10-01T10:30:26.562Z,56.22
2022-10-01T10:32:28.790Z,55.60
2022-10-01T10:34:40.882Z,56.47
2022-10-01T10:36:44.399Z,56.13
2022-10-01T10:38:49.932Z,54.75
2022-10-01T10:40:57.759Z,53.77
2022-10-01T10:43:00.014Z,53.74
2022-10-01T10:45:03.639Z,53.14
2022-10-01T10:47:13.662Z,52.55
2022-10-01T10:49:23.727Z,52.73
2022-10-01T10:51:27.774Z,52.54
2022-10-01T10:53:40.721Z,50.51
2022-10-01T10:55:53.515Z,51.79
2022-10-01T10:57:57.718Z,50.89
2022-10-01T11:00:21.677Z,51.02
2022-10-01T11:02:25.584Z,50.93
2022-10-01T11:04:41.262Z,51.13
2022-10-01T11:06:43.420Z,51.63
2022-10-01T11:08:57.232Z,48.96
2022-10-01T11:11:17.269Z,49.94
2022-10-01T11:13:25.288Z,49.21
2022-10-01T11:15:30.146Z,49.15
2022-10-01T11:17:49.916Z,49.10
2022-10-01T11:20:34.021Z,49.29
2022-10-01T11:22:41.306Z,49.82
2022-10-01T11:24:53.222Z,49.59
2022-10-01T11:27:03.757Z,48.76
2022-10-01T11:29:19.039Z,48.13
2022-10-01T11:31:22.526Z,48.18
2022-10-01T11:33:44.987Z,48.03
2022-10-01T11:36:21.246Z,47.73
2022-10-01T11:38:50.206Z,48.29
2022-10-01T11:41:01.185Z,47.77
2022-10-01T11:43:19.238Z,46.14
2022-10-01T11:45:49.334Z,46.90
2022-10-01T11:47:57.312Z,47.30
2022-10-01T11:50:04.366Z,46.83
2022-10-01T11:52:33.983Z,46.74
2022-10-01T11:54:52.135Z,47.21
2022-10-01T11:57:17.014Z,47.80
2022-10-01T11:59:33.369Z,47.59
2022-10-01T12:01:44.095Z,48.13
2022-10-01T12:03:55.727Z,48.46
2022-10-01T12:05:58.980Z,48.13
2022-10-01T12:08:14.177Z,47.78
2022-10-01T12:10:59.007Z,47.75
2022-10-01T12:13:16.001Z,47.98
2022-10-01T12:15:24.148Z,48.26
2022-10-01T12:17:40.288Z,48.46
2022-10-01T12:19:46.948Z,47.89
2022-10-01T12:21:57.629Z,48.20
2022-10-01T12:24:05.225Z,47.00
2022-10-01T12:26:14.582Z,46.29
2022-10-01T12:28:26.252Z,47.27
2022-10-01T12:31:15.684Z,46.46
2022-10-01T12:33:17.286Z,46.63
2022-10-01T12:35:52.280Z,46.36
2022-10-01T12:38:03.697Z,46.01
2022-10-01T12:40:17.996Z,45.91
2022-10-01T12:42:37.885Z,45.62
2022-10-01T12:45:09.966Z,44.63
2022-10-01T12:47:15.056Z,45.00
2022-10-01T12:49:35.773Z,44.98
2022-10-01T12:51:41.884Z,45.57
2022-10-01T12:54:13.477Z,46.03
2022-10-01T12:56:44.567Z,45.94
2022-10-01T12:59:22.044Z,46.07
2022-10-01T13:01:42.256Z,46.40
2022-10-01T13:03:58.791Z,45.99
2022-10-01T13:06:11.655Z,45.88
2022-10-01T13:08:16.115Z,46.08
2022-10-01T13:10:30.041Z,45.40
2022-10-01T13:12:57.731Z,44.81
2022-10-01T13:15:00.262Z,44.69
2022-10-01T13:17:33.891Z,44.90
2022-10-01T13:19:48.191Z,44.54
2022-10-01T13:22:14.566Z,44.05
2022-10-01T13:24:40.892Z,43.98
2022-10-01T13:26:58.486Z,44.41
2022-10-01T13:29:15.424Z,44.27
2022-10-01T13:31:21.751Z,44.57
2022-10-01T13:33:26.704Z,44.68
2022-10-01T13:35:36.547Z,45.22
2022-10-01T13:37:39.884Z,45.48
2022-10-01T13:39:43.703Z,44.89
2022-10-01T13:41:45.636Z,43.47
2022-10-01T13:43:59.260Z,43.57
2022-10-01T13:46:11.602Z,43.88
2022-10-01T13:48:24.032Z,43.61
2022-10-01T13:50:25.724Z,44.21
2022-10-01T13:52:28.157Z,43.54
2022-10-01T13:54:50.458Z,43.79
2022-10-01T13:56:52.083Z,43.56
2022-10-01T13:58:54.022Z,43.48
2022-10-01T14:00:59.377Z,43.83
2022-10-01T14:03:46.402Z,43.83
2022-10-01T14:05:55.860Z,43.81
2022-10-01T14:08:12.621Z,42.86
2022-10-01T14:10:15.689Z,43.83
2022-10-01T14:12:43.781Z,43.69
2022-10-01T14:15:15.122Z,44.46
2022-10-01T14:17:22.484Z,43.96
2022-10-01T14:19:26.349Z,44.29
2022-10-01T14:21:42.912Z,44.11
2022-10-01T14:24:05.404Z,43.48
2022-10-01T14:26:37.695Z,43.39
2022-10-01T14:28:47.284Z,43.68
2022-10-01T14:31:01.947Z,44.11
2022-10-01T14:33:30.104Z,43.44
2022-10-01T14:35:38.464Z,43.32
2022-10-01T14:37:40.694Z,43.75
2022-10-01T14:39:42.638Z,43.71
2022-10-01T14:41:45.896Z,44.08
2022-10-01T14:43:47.571Z,44.20
2022-10-01T14:46:01.090Z,44.67
2022-10-01T14:48:04.563Z,45.41
2022-10-01T14:50:22.086Z,45.32
2022-10-01T14:52:27.923Z,45.61
2022-10-01T14:54:33.749Z,45.53
2022-10-01T14:56:35.877Z,45.94
2022-10-01T14:58:41.719Z,46.52
2022-10-01T15:00:58.005Z,45.63
2022-10-01T15:03:15.190Z,45.75
2022-10-01T15:05:30.769Z,45.51
2022-10-01T15:07:36.663Z,45.80
2022-10-01T15:09:38.267Z,46.04
2022-10-01T15:11:44.518Z,46.02
2022-10-01T15:13:49.634Z,46.16
2022-10-01T15:15:53.440Z,45.94
2022-10-01T15:17:55.861Z,45.29
2022-10-01T15:19:58.692Z,45.80
2022-10-01T15:22:02.367Z,45.23
2022-10-01T15:24:06.814Z,45.22
2022-10-01T15:26:12.157Z,45.34
2022-10-01T15:28:26.947Z,45.18
2022-10-01T15:30:29.132Z,45.28
2022-10-01T15:32:30.917Z,45.01
2022-10-01T15:34:33.245Z,44.66
2022-10-01T15:36:36.455Z,44.50
2022-10-01T15:38:39.316Z,42.21
2022-10-01T15:41:13.934Z,42.00
2022-10-01T15:43:42.215Z,41.99
2022-10-01T15:45:44.043Z,41.09
2022-10-01T15:47:51.893Z,41.42
2022-10-01T15:50:06.644Z,40.97
2022-10-01T15:52:34.857Z,41.10
2022-10-01T15:54:37.431Z,41.47
2022-10-01T15:56:42.116Z,41.38
2022-10-01T15:58:54.665Z,41.50
2022-10-01T16:01:21.446Z,41.82
2022-10-01T16:03:29.252Z,42.17
2022-10-01T16:05:47.396Z,42.28
2022-10-01T16:07:58.453Z,42.34
2022-10-01T16:10:14.444Z,42.35
2022-10-01T16:12:22.330Z,42.07
2022-10-01T16:14:29.758Z,42.62
2022-10-01T16:16:31.530Z,42.67
2022-10-01T16:18:34.918Z,42.98
2022-10-01T16:20:43.910Z,43.37
2022-10-01T16:22:47.083Z,43.32
2022-10-01T16:24:51.500Z,43.51
2022-10-01T16:27:00.555Z,43.21
2022-10-01T16:29:22.272Z,43.75
2022-10-01T16:31:25.655Z,43.67
2022-10-01T16:33:27.387Z,43.41
2022-10-01T16:35:32.838Z,43.35
2022-10-01T16:37:35.320Z,43.40
2022-10-01T16:39:37.035Z,43.48
2022-10-01T16:41:39.126Z,43.96
2022-10-01T16:43:40.841Z,44.28
2022-10-01T16:45:42.871Z,44.26
2022-10-01T16:47:45.620Z,44.11
2022-10-01T16:49:48.481Z,44.32
2022-10-01T16:51:54.235Z,44.24
2022-10-01T16:53:57.041Z,44.22
2022-10-01T16:55:58.726Z,44.91
2022-10-01T16:58:02.099Z,45.16
2022-10-01T17:00:04.161Z,45.34
2022-10-01T17:02:11.794Z,45.57
2022-10-01T17:04:14.135Z,45.70
2022-10-01T17:06:15.907Z,46.29
2022-10-01T17:08:17.633Z,46.33
2022-10-01T17:10:24.953Z,46.28
2022-10-01T17:12:27.072Z,46.71
2022-10-01T17:14:28.758Z,46.51
2022-10-01T17:16:30.614Z,46.71
2022-10-01T17:18:32.485Z,46.74
2022-10-01T17:20:35.392Z,46.77
2022-10-01T17:22:39.037Z,47.18
2022-10-01T17:24:40.693Z,46.68
2022-10-01T17:26:45.369Z,46.68
2022-10-01T17:28:47.153Z,46.91
2022-10-01T17:30:51.190Z,46.28
2022-10-01T17:32:52.863Z,46.49
2022-10-01T17:34:54.558Z,46.57
2022-10-01T17:36:56.294Z,46.80
2022-10-01T17:38:58.097Z,46.58
2022-10-01T17:41:01.864Z,46.52
2022-10-01T17:43:04.022Z,47.03
2022-10-01T17:45:09.015Z,47.36
2022-10-01T17:47:10.718Z,47.04
2022-10-01T17:49:13.069Z,46.89
2022-10-01T17:51:15.880Z,46.85
2022-10-01T17:53:17.500Z,47.03
2022-10-01T17:55:20.764Z,47.17
2022-10-01T17:57:22.406Z,47.18
2022-10-01T17:59:24.124Z,47.63
2022-10-01T18:01:26.645Z,47.72
2022-10-01T18:03:28.430Z,47.90
2022-10-01T18:05:30.760Z,47.91
2022-10-01T18:07:32.391Z,48.04
2022-10-01T18:09:35.810Z,48.06
2022-10-01T18:11:38.415Z,48.12
2022-10-01T18:13:40.380Z,48.91
2022-10-01T18:15:42.088Z,47.99
2022-10-01T18:17:51.053Z,48.08
2022-10-01T18:19:54.209Z,47.89
2022-10-01T18:21:57.523Z,47.78
2022-10-01T18:24:03.973Z,47.46
2022-10-01T18:26:06.838Z,47.76
2022-10-01T18:28:08.667Z,47.55
2022-10-01T18:30:10.891Z,47.44
2022-10-01T18:32:17.688Z,47.82
2022-10-01T18:34:28.823Z,48.31
2022-10-01T18:37:05.270Z,48.10
2022-10-01T18:39:33.474Z,48.42
2022-10-01T18:41:38.829Z,48.53
2022-10-01T18:43:42.305Z,49.01
2022-10-01T18:46:04.802Z,49.18
2022-10-01T18:48:31.966Z,49.60
2022-10-01T18:50:36.723Z,49.90
2022-10-01T18:52:57.576Z,50.45
2022-10-01T18:54:59.080Z,50.60
2022-10-01T18:57:21.578Z,50.86
2022-10-01T18:59:28.254Z,51.04
2022-10-01T19:01:43.325Z,51.20
2022-10-01T19:04:10.594Z,51.59
2022-10-01T19:06:38.675Z,51.14
2022-10-01T19:09:03.829Z,51.49
2022-10-01T19:11:22.251Z,51.70
2022-10-01T19:13:42.638Z,51.85
2022-10-01T19:16:03.742Z,52.35
2022-10-01T19:18:31.548Z,52.33
2022-10-01T19:20:54.039Z,52.38
2022-10-01T19:23:14.319Z,52.68
2022-10-01T19:25:27.177Z,53.03
2022-10-01T19:27:57.170Z,53.09
2022-10-01T19:30:16.431Z,53.07
2022-10-01T19:32:22.912Z,53.47
2022-10-01T19:34:46.494Z,53.27
2022-10-01T19:36:57.454Z,53.58
2022-10-01T19:39:03.733Z,53.78
2022-10-01T19:41:16.187Z,54.82
2022-10-01T19:43:26.776Z,54.53
2022-10-01T19:45:51.278Z,54.58
2022-10-01T19:47:53.787Z,54.77
2022-10-01T19:50:06.514Z,55.93
2022-10-01T19:52:13.344Z,54.76
2022-10-01T19:54:21.204Z,54.73
2022-10-01T19:56:28.554Z,55.73
2022-10-01T19:58:32.697Z,54.48
2022-10-01T20:00:34.634Z,54.83
2022-10-01T20:03:30.361Z,54.70
2022-10-01T20:05:54.907Z,55.05
2022-10-01T20:08:11.310Z,55.22
2022-10-01T20:10:31.266Z,55.04
2022-10-01T20:12:54.093Z,55.40
2022-10-01T20:15:09.448Z,55.66
2022-10-01T20:17:35.722Z,55.89
2022-10-01T20:19:55.984Z,55.94
2022-10-01T20:22:06.285Z,55.95
2022-10-01T20:24:29.037Z,56.08
2022-10-01T20:26:45.420Z,56.25
2022-10-01T20:28:52.083Z,56.40
2022-10-01T20:31:23.187Z,56.09
2022-10-01T20:33:53.807Z,56.42
2022-10-01T20:36:10.679Z,57.12
2022-10-01T20:38:20.826Z,57.03
2022-10-01T20:40:30.191Z,56.92
2022-10-01T20:42:38.580Z,57.21
2022-10-01T20:44:40.617Z,57.69
2022-10-01T20:46:52.789Z,58.24
2022-10-01T20:49:02.906Z,58.31
2022-10-01T20:51:31.558Z,58.32
2022-10-01T20:53:38.985Z,58.16
2022-10-01T20:55:47.995Z,58.15
2022-10-01T20:57:54.628Z,58.43
2022-10-01T21:00:08.423Z,58.20
2022-10-01T21:02:20.969Z,58.40
2022-10-01T21:04:28.116Z,58.80
2022-10-01T21:06:45.925Z,58.89
2022-10-01T21:08:57.416Z,59.01
2022-10-01T21:11:04.479Z,58.98
2022-10-01T21:13:33.203Z,58.81
2022-10-01T21:16:01.623Z,59.93
2022-10-01T21:18:15.927Z,59.49
2022-10-01T21:20:32.616Z,60.05
2022-10-01T21:22:56.590Z,59.90
2022-10-01T21:25:15.435Z,60.00
2022-10-01T21:27:24.210Z,60.11
2022-10-01T21:29:50.690Z,60.03
2022-10-01T21:32:20.461Z,60.26
2022-10-01T21:34:33.984Z,60.46
2022-10-01T21:37:03.136Z,60.64
2022-10-01T21:39:40.977Z,60.31
2022-10-01T21:41:53.650Z,61.01
2022-10-01T21:44:28.565Z,60.87
2022-10-01T21:46:41.184Z,61.60
2022-10-01T21:49:01.435Z,60.96
2022-10-01T21:51:15.263Z,61.24
2022-10-01T21:53:58.453Z,61.26
2022-10-01T21:56:35.907Z,61.40
2022-10-01T21:58:47.509Z,61.63
2022-10-01T22:01:33.899Z,61.48
2022-10-01T22:03:45.119Z,61.80
2022-10-01T22:06:12.867Z,61.96
2022-10-01T22:08:31.430Z,61.81
2022-10-01T22:10:41.804Z,61.91
2022-10-01T22:12:49.618Z,61.83
2022-10-01T22:14:53.797Z,62.25
2022-10-01T22:16:57.688Z,61.78
2022-10-01T22:19:16.882Z,62.04
2022-10-01T22:21:31.104Z,62.53
2022-10-01T22:23:38.367Z,62.05
2022-10-01T22:25:51.819Z,62.05
2022-10-01T22:28:06.178Z,61.90
2022-10-01T22:30:13.177Z,62.12
2022-10-01T22:32:19.376Z,61.95
2022-10-01T22:34:25.498Z,62.18
2022-10-01T22:36:41.446Z,62.61
2022-10-01T22:38:54.067Z,62.39
2022-10-01T22:41:06.905Z,62.86
2022-10-01T22:43:13.715Z,62.78
2022-10-01T22:45:17.787Z,62.57
2022-10-01T22:47:41.007Z,63.47
2022-10-01T22:50:07.450Z,63.12
2022-10-01T22:52:41.175Z,63.41
2022-10-01T22:55:18.515Z,64.70
2022-10-01T22:57:36.344Z,64.51
2022-10-01T23:00:02.841Z,64.60
2022-10-01T23:02:18.017Z,64.70
2022-10-01T23:05:06.360Z,65.17
2022-10-01T23:07:23.271Z,65.13
2022-10-01T23:09:24.835Z,66.21
2022-10-01T23:11:35.008Z,66.46
2022-10-01T23:14:01.376Z,66.68
2022-10-01T23:16:24.525Z,67.14
2022-10-01T23:18:50.818Z,67.45
2022-10-01T23:21:23.336Z,67.34
2022-10-01T23:23:32.025Z,67.33
2022-10-01T23:25:33.619Z,67.75
2022-10-01T23:27:59.830Z,68.42
2022-10-01T23:30:14.421Z,68.72
2022-10-01T23:32:37.420Z,68.51
2022-10-01T23:34:57.000Z,68.95
2022-10-01T23:37:41.064Z,69.37
2022-10-01T23:39:47.747Z,69.26
2022-10-01T23:42:30.424Z,68.78
2022-10-01T23:45:20.585Z,69.25
2022-10-01T23:48:08.618Z,68.85
2022-10-01T23:50:23.204Z,69.05
2022-10-01T23:52:39.069Z,69.18
2022-10-01T23:54:52.026Z,69.64
2022-10-01T23:57:06.312Z,69.43
2022-10-01T23:59:34.082Z,70.05
